createdAt,value
2022-11-28T00:02:22.737Z,72.72
2022-11-28T00:04:54.537Z,72.89
2022-11-28T00:07:25.329Z,72.26
2022-11-28T00:09:56.119Z,72.28
2022-11-28T00:12:27.581Z,72.10
2022-11-28T00:14:56.808Z,72.50
2022-11-28T00:17:27.381Z,71.93
2022-11-28T00:19:57.932Z,71.81
2022-11-28T00:22:29.412Z,72.51
2022-11-28T00:25:00.082Z,72.33
2022-11-28T00:27:30.556Z,72.42
2022-11-28T00:30:01.116Z,72.61
2022-11-28T00:32:31.561Z,73.89
2022-11-28T00:35:01.968Z,76.47
2022-11-28T00:37:32.522Z,78.34
2022-11-28T00:40:03.004Z,79.57
2022-11-28T00:42:33.434Z,80.71
2022-11-28T00:45:03.903Z,81.36
2022-11-28T00:47:34.332Z,81.88
2022-11-28T00:50:05.146Z,82.20
2022-11-28T00:52:36.039Z,82.70
2022-11-28T00:55:07.109Z,83.14
2022-11-28T00:57:37.779Z,83.02
2022-11-28T01:00:10.388Z,83.15
2022-11-28T01:02:40.940Z,83.24
2022-11-28T01:05:12.078Z,83.29
2022-11-28T01:07:42.596Z,83.54
2022-11-28T01:10:14.926Z,83.66
2022-11-28T01:12:45.718Z,83.72
2022-11-28T01:15:16.271Z,83.88
2022-11-28T01:17:46.704Z,84.19
2022-11-28T01:20:17.408Z,84.23
2022-11-28T01:22:48.266Z,84.66
2022-11-28T01:25:18.974Z,84.80
2022-11-28T01:27:49.471Z,85.24
2022-11-28T01:30:20.358Z,85.59
2022-11-28T01:32:50.958Z,85.93
2022-11-28T01:35:21.773Z,86.13
2022-11-28T01:37:52.202Z,86.56
2022-11-28T01:40:22.862Z,86.90
2022-11-28T01:42:53.300Z,87.38
2022-11-28T01:45:25.895Z,87.80
2022-11-28T01:48:00.981Z,88.18
2022-11-28T01:50:33.808Z,88.62
2022-11-28T01:53:09.516Z,88.75
2022-11-28T01:55:44.327Z,89.16
2022-11-28T01:58:15.703Z,89.51
2022-11-28T02:00:44.890Z,89.56
2022-11-28T02:03:18.762Z,89.97
2022-11-28T02:05:51.438Z,89.90
2022-11-28T02:08:21.936Z,90.02
2022-11-28T02:11:15.280Z,90.21
2022-11-28T02:13:54.265Z,90.33
2022-11-28T02:16:40.200Z,90.51
2022-11-28T02:19:35.026Z,90.46
2022-11-28T02:22:11.007Z,90.45
2022-11-28T02:25:21.954Z,90.49
2022-11-28T02:28:16.095Z,90.45
2022-11-28T02:30:58.857Z,90.13
2022-11-28T02:33:33.775Z,89.33
2022-11-28T02:36:13.029Z,88.71
2022-11-28T02:38:57.638Z,88.05
2022-11-28T02:41:34.585Z,86.22
2022-11-28T02:44:13.262Z,85.88
2022-11-28T02:46:54.716Z,85.13
2022-11-28T02:49:28.808Z,84.85
2022-11-28T02:52:01.889Z,83.97
2022-11-28T02:54:33.179Z,82.97
2022-11-28T02:57:04.011Z,82.35
2022-11-28T02:59:49.205Z,81.83
2022-11-28T03:02:24.086Z,81.22
2022-11-28T03:05:00.888Z,80.78
2022-11-28T03:08:01.399Z,80.61
2022-11-28T03:10:41.809Z,80.33
2022-11-28T03:13:19.761Z,80.42
2022-11-28T03:16:01.649Z,80.24
2022-11-28T03:18:37.394Z,79.96
2022-11-28T03:21:15.594Z,80.17
2022-11-28T03:23:50.136Z,79.71
2022-11-28T03:26:25.935Z,79.85
2022-11-28T03:29:01.626Z,79.79
2022-11-28T03:31:37.973Z,79.82
2022-11-28T03:34:12.709Z,80.08
2022-11-28T03:36:47.421Z,79.99
2022-11-28T03:39:32.990Z,79.77
2022-11-28T03:42:11.216Z,79.66
2022-11-28T03:44:46.923Z,79.12
2022-11-28T03:47:17.549Z,79.51
2022-11-28T03:49:53.333Z,79.54
2022-11-28T03:52:29.615Z,79.51
2022-11-28T03:55:03.951Z,79.70
2022-11-28T03:57:38.608Z,79.70
2022-11-28T04:00:13.006Z,79.72
2022-11-28T04:02:53.854Z,79.72
2022-11-28T04:05:31.868Z,79.92
2022-11-28T04:08:08.669Z,80.18
2022-11-28T04:10:43.723Z,80.56
2022-11-28T04:13:21.850Z,80.74
2022-11-28T04:16:00.569Z,81.03
2022-11-28T04:18:40.624Z,82.12
2022-11-28T04:21:18.119Z,83.19
2022-11-28T04:23:51.056Z,84.10
2022-11-28T04:26:28.270Z,84.06
2022-11-28T04:29:00.605Z,83.98
2022-11-28T04:31:32.024Z,83.99
2022-11-28T04:34:03.741Z,84.61
2022-11-28T04:36:35.484Z,85.83
2022-11-28T04:39:11.955Z,88.78
2022-11-28T04:41:49.477Z,89.57
2022-11-28T04:44:24.326Z,90.19
2022-11-28T04:46:57.806Z,90.80
2022-11-28T04:49:30.343Z,90.79
2022-11-28T04:52:06.332Z,91.07
2022-11-28T04:54:49.480Z,91.25
2022-11-28T04:57:23.284Z,91.11
2022-11-28T04:59:54.920Z,91.09
2022-11-28T05:02:27.339Z,90.96
2022-11-28T05:04:58.414Z,90.97
2022-11-28T05:07:29.051Z,90.90
2022-11-28T05:09:59.797Z,90.94
2022-11-28T05:12:30.362Z,90.58
2022-11-28T05:15:01.793Z,90.21
2022-11-28T05:17:30.816Z,90.12
2022-11-28T05:20:01.605Z,90.35
2022-11-28T05:22:32.056Z,89.99
2022-11-28T05:25:02.547Z,89.27
2022-11-28T05:27:33.252Z,88.36
2022-11-28T05:30:03.816Z,87.95
2022-11-28T05:32:36.430Z,86.92
2022-11-28T05:35:07.959Z,86.67
2022-11-28T05:37:38.637Z,85.86
2022-11-28T05:40:12.443Z,85.66
2022-11-28T05:42:42.848Z,84.76
2022-11-28T05:45:14.026Z,84.27
2022-11-28T05:47:46.469Z,83.83
2022-11-28T05:50:17.243Z,83.04
2022-11-28T05:52:47.932Z,82.45
2022-11-28T05:55:18.758Z,82.10
2022-11-28T05:57:49.370Z,82.18
2022-11-28T06:00:21.933Z,81.42
2022-11-28T06:02:55.931Z,81.07
2022-11-28T06:05:42.323Z,81.01
2022-11-28T06:08:14.967Z,80.71
2022-11-28T06:10:45.480Z,80.70
2022-11-28T06:13:15.845Z,80.37
2022-11-28T06:15:46.537Z,80.56
2022-11-28T06:18:17.095Z,80.41
2022-11-28T06:20:47.584Z,80.49
2022-11-28T06:23:18.228Z,80.23
2022-11-28T06:25:48.722Z,80.11
2022-11-28T06:28:19.223Z,79.67
2022-11-28T06:30:49.740Z,79.71
2022-11-28T06:33:20.394Z,79.88
2022-11-28T06:35:51.051Z,80.22
2022-11-28T06:38:21.513Z,79.74
2022-11-28T06:40:52.026Z,80.01
2022-11-28T06:43:22.458Z,80.05
2022-11-28T06:45:53.076Z,79.85
2022-11-28T06:48:24.457Z,80.04
2022-11-28T06:50:53.653Z,80.05
2022-11-28T06:53:27.344Z,80.31
2022-11-28T06:56:07.462Z,80.24
2022-11-28T06:58:38.893Z,80.10
2022-11-28T07:01:08.802Z,80.15
2022-11-28T07:03:40.158Z,80.38
2022-11-28T07:06:12.350Z,80.59
2022-11-28T07:08:43.345Z,80.39
2022-11-28T07:11:16.430Z,80.11
2022-11-28T07:13:48.156Z,80.43
2022-11-28T07:16:21.855Z,80.22
2022-11-28T07:18:53.432Z,80.35
2022-11-28T07:21:24.031Z,80.52
2022-11-28T07:23:54.692Z,80.58
2022-11-28T07:26:25.314Z,80.44
2022-11-28T07:28:58.124Z,80.56
2022-11-28T07:31:32.408Z,80.98
2022-11-28T07:34:04.751Z,81.17
2022-11-28T07:36:35.348Z,81.48
2022-11-28T07:39:08.335Z,81.53
2022-11-28T07:41:39.084Z,81.51
2022-11-28T07:44:11.318Z,81.58
2022-11-28T07:46:41.881Z,81.34
2022-11-28T07:49:13.218Z,81.52
2022-11-28T07:51:45.077Z,81.66
2022-11-28T07:54:15.568Z,81.92
2022-11-28T07:59:37.166Z,81.82
2022-11-28T08:02:08.078Z,81.90
2022-11-28T08:04:42.637Z,81.63
2022-11-28T08:07:16.791Z,81.66
2022-11-28T08:09:47.672Z,81.23
2022-11-28T08:12:18.303Z,81.37
2022-11-28T08:14:48.821Z,81.54
2022-11-28T08:17:19.496Z,81.77
2022-11-28T08:19:50.053Z,81.90
2022-11-28T08:22:20.490Z,82.06
2022-11-28T08:24:51.077Z,82.01
2022-11-28T08:27:21.622Z,81.47
2022-11-28T08:29:53.987Z,81.60
2022-11-28T08:32:25.665Z,81.54
2022-11-28T08:34:54.675Z,81.74
2022-11-28T08:37:26.427Z,81.82
2022-11-28T08:39:57.461Z,82.16
2022-11-28T08:42:28.798Z,82.14
2022-11-28T08:44:57.914Z,82.41
2022-11-28T08:47:28.613Z,82.44
2022-11-28T08:49:59.286Z,82.48
2022-11-28T08:52:29.969Z,82.71
2022-11-28T08:55:00.432Z,82.60
2022-11-28T08:57:30.862Z,82.76
2022-11-28T09:00:01.439Z,82.21
2022-11-28T09:02:32.072Z,82.61
2022-11-28T09:05:02.814Z,82.99
2022-11-28T09:07:33.378Z,83.13
2022-11-28T09:10:04.770Z,83.33
2022-11-28T09:12:33.845Z,83.64
2022-11-28T09:15:04.892Z,83.64
2022-11-28T09:17:35.495Z,82.74
2022-11-28T09:20:07.086Z,82.79
2022-11-28T09:22:37.565Z,82.09
2022-11-28T09:25:09.746Z,81.56
2022-11-28T09:27:40.342Z,82.00
2022-11-28T09:30:12.565Z,81.67
2022-11-28T09:32:43.066Z,81.55
2022-11-28T09:35:13.908Z,80.94
2022-11-28T09:37:44.535Z,80.97
2022-11-28T09:40:21.263Z,81.03
2022-11-28T09:42:52.096Z,80.53
2022-11-28T09:45:24.869Z,80.63
2022-11-28T09:47:59.379Z,80.11
2022-11-28T09:50:34.160Z,80.09
2022-11-28T09:53:14.643Z,79.19
2022-11-28T09:55:49.946Z,78.36
2022-11-28T09:58:26.072Z,77.73
2022-11-28T10:01:07.295Z,76.85
2022-11-28T10:03:49.163Z,75.64
2022-11-28T10:06:24.937Z,76.02
2022-11-28T10:09:23.454Z,75.67
2022-11-28T10:12:07.800Z,75.10
2022-11-28T10:15:05.085Z,75.66
2022-11-28T10:18:23.931Z,75.14
2022-11-28T10:21:02.601Z,74.03
2022-11-28T10:23:40.155Z,74.35
2022-11-28T10:26:17.915Z,73.90
2022-11-28T10:28:52.865Z,73.41
2022-11-28T10:31:31.707Z,73.78
2022-11-28T10:34:08.373Z,74.01
2022-11-28T10:36:55.618Z,74.17
2022-11-28T10:39:27.892Z,74.68
2022-11-28T10:42:14.058Z,75.12
2022-11-28T10:45:01.224Z,77.35
2022-11-28T10:47:55.037Z,80.53
2022-11-28T10:50:34.519Z,82.34
2022-11-28T10:53:19.238Z,82.78
2022-11-28T10:56:01.088Z,84.79
2022-11-28T10:58:39.376Z,85.03
2022-11-28T11:01:10.734Z,85.85
2022-11-28T11:03:40.232Z,86.36
2022-11-28T11:06:11.222Z,87.00
2022-11-28T11:08:42.787Z,87.76
2022-11-28T11:11:25.160Z,87.42
2022-11-28T11:14:05.085Z,87.78
2022-11-28T11:16:53.695Z,88.39
2022-11-28T11:19:30.130Z,89.32
2022-11-28T11:22:07.404Z,89.95
2022-11-28T11:24:37.934Z,90.21
2022-11-28T11:27:17.350Z,90.48
2022-11-28T11:29:51.443Z,91.40
2022-11-28T11:32:25.650Z,91.70
2022-11-28T11:34:58.617Z,91.97
2022-11-28T11:37:37.507Z,91.79
2022-11-28T11:40:26.484Z,92.30
2022-11-28T11:42:58.996Z,93.28
2022-11-28T11:45:34.453Z,93.08
2022-11-28T11:48:06.536Z,93.28
2022-11-28T11:50:39.012Z,92.83
2022-11-28T11:53:15.020Z,92.46
2022-11-28T11:55:50.060Z,92.31
2022-11-28T11:58:24.621Z,92.56
2022-11-28T12:00:58.482Z,92.30
2022-11-28T12:03:34.391Z,92.95
2022-11-28T12:06:14.933Z,93.94
2022-11-28T12:08:50.491Z,94.01
2022-11-28T12:11:26.239Z,93.93
2022-11-28T12:13:58.450Z,94.07
2022-11-28T12:16:46.849Z,93.91
2022-11-28T12:19:32.347Z,93.46
2022-11-28T12:22:15.013Z,92.74
2022-11-28T12:25:02.960Z,93.70
2022-11-28T12:27:53.499Z,94.09
2022-11-28T12:30:33.594Z,94.68
2022-11-28T12:33:20.918Z,95.44
2022-11-28T12:36:05.784Z,96.16
2022-11-28T12:38:52.731Z,96.81
2022-11-28T12:41:38.570Z,97.22
2022-11-28T12:44:22.179Z,97.97
2022-11-28T12:47:03.693Z,98.65
2022-11-28T12:49:37.887Z,98.80
2022-11-28T12:52:23.796Z,98.92
2022-11-28T12:55:12.864Z,99.00
2022-11-28T12:57:48.675Z,99.43
2022-11-28T13:00:23.653Z,99.78
2022-11-28T13:03:05.116Z,99.99
2022-11-28T13:05:41.716Z,99.99
2022-11-28T13:08:34.598Z,100.00
2022-11-28T13:11:14.882Z,100.00
2022-11-28T13:13:52.578Z,100.00
2022-11-28T13:16:29.029Z,100.00
2022-11-28T13:19:06.150Z,99.85
2022-11-28T13:21:44.780Z,99.90
2022-11-28T13:24:24.274Z,100.00
2022-11-28T13:27:05.588Z,100.00
2022-11-28T13:29:47.371Z,100.00
2022-11-28T13:32:26.316Z,100.00
2022-11-28T13:34:57.688Z,100.00
2022-11-28T13:40:27.889Z,100.00
2022-11-28T13:43:08.370Z,100.00
2022-11-28T13:45:42.530Z,100.00
2022-11-28T13:51:44.001Z,100.00
2022-11-28T13:54:52.797Z,100.00
2022-11-28T13:57:37.225Z,100.00
2022-11-28T14:00:23.904Z,100.00
2022-11-28T14:02:58.156Z,100.00
2022-11-28T14:05:32.989Z,100.00
2022-11-28T14:08:05.971Z,100.00
2022-11-28T14:11:05.923Z,100.00
2022-11-28T14:13:52.387Z,100.00
2022-11-28T14:16:36.550Z,100.00
2022-11-28T14:19:23.048Z,100.00
2022-11-28T14:22:07.385Z,100.00
2022-11-28T14:24:57.224Z,100.00
2022-11-28T14:27:33.507Z,100.00
2022-11-28T14:30:24.173Z,100.00
2022-11-28T14:32:59.335Z,100.00
2022-11-28T14:36:15.824Z,100.00
2022-11-28T14:39:00.664Z,100.00
2022-11-28T14:41:55.542Z,100.00
2022-11-28T14:44:50.663Z,100.00
2022-11-28T14:47:31.968Z,100.00
2022-11-28T14:50:37.172Z,100.00
2022-11-28T14:53:36.229Z,100.00
2022-11-28T14:56:22.490Z,100.00
2022-11-28T14:58:57.270Z,100.00
2022-11-28T15:01:42.033Z,100.00
2022-11-28T15:04:38.394Z,100.00
2022-11-28T15:07:22.309Z,100.00
2022-11-28T15:13:55.724Z,100.00
2022-11-28T15:16:29.897Z,100.00
2022-11-28T15:19:07.313Z,100.00
2022-11-28T15:21:47.592Z,100.00
2022-11-28T15:24:24.933Z,100.00
2022-11-28T15:26:58.192Z,100.00
2022-11-28T15:29:29.769Z,100.00
2022-11-28T15:32:03.128Z,100.00
2022-11-28T15:34:35.797Z,100.00
2022-11-28T15:37:16.235Z,100.00
2022-11-28T15:39:50.125Z,100.00
2022-11-28T15:42:25.120Z,100.00
2022-11-28T15:44:59.251Z,100.00
2022-11-28T15:47:30.819Z,100.00
2022-11-28T15:50:05.495Z,100.00
2022-11-28T15:52:36.699Z,100.00
2022-11-28T15:55:17.565Z,100.00
2022-11-28T15:57:48.530Z,100.00
2022-11-28T16:00:22.022Z,100.00
2022-11-28T16:02:52.744Z,100.00
2022-11-28T16:05:23.847Z,100.00
2022-11-28T16:07:55.218Z,100.00
2022-11-28T16:10:25.788Z,100.00
2022-11-28T16:13:02.683Z,100.00
2022-11-28T16:15:33.776Z,100.00
2022-11-28T16:18:04.627Z,100.00
2022-11-28T16:20:39.233Z,100.00
2022-11-28T16:23:17.769Z,100.00
2022-11-28T16:25:59.043Z,100.00
2022-11-28T16:28:36.320Z,100.00
2022-11-28T16:31:13.337Z,100.00
2022-11-28T16:33:45.864Z,100.00
2022-11-28T16:36:24.689Z,100.00
2022-11-28T16:39:05.865Z,100.00
2022-11-28T16:41:37.544Z,100.00
2022-11-28T16:44:16.040Z,100.00
2022-11-28T16:46:54.581Z,100.00
2022-11-28T16:49:38.257Z,100.00
2022-11-28T16:52:45.518Z,100.00
2022-11-28T16:55:46.195Z,100.00
2022-11-28T16:58:27.772Z,100.00
2022-11-28T17:01:03.678Z,100.00
2022-11-28T17:03:51.570Z,100.00
2022-11-28T17:06:25.190Z,100.00
2022-11-28T17:08:56.135Z,100.00
2022-11-28T17:11:30.628Z,100.00
2022-11-28T17:14:02.720Z,100.00
2022-11-28T17:16:36.941Z,100.00
2022-11-28T17:19:07.545Z,100.00
2022-11-28T17:21:41.580Z,100.00
2022-11-28T17:24:18.487Z,100.00
2022-11-28T17:26:50.016Z,100.00
2022-11-28T17:29:20.912Z,100.00
2022-11-28T17:31:55.230Z,100.00
2022-11-28T17:34:27.463Z,100.00
2022-11-28T17:36:58.542Z,100.00
2022-11-28T17:39:29.770Z,100.00
2022-11-28T17:42:00.680Z,100.00
2022-11-28T17:44:33.045Z,100.00
2022-11-28T17:47:04.531Z,100.00
2022-11-28T17:49:35.429Z,100.00
2022-11-28T17:52:06.200Z,100.00
2022-11-28T17:54:37.075Z,100.00
2022-11-28T17:57:07.838Z,100.00
2022-11-28T17:59:39.005Z,100.00
2022-11-28T18:02:08.316Z,100.00
2022-11-28T18:04:39.135Z,100.00
2022-11-28T18:07:10.169Z,100.00
2022-11-28T18:09:41.049Z,100.00
2022-11-28T18:12:11.720Z,100.00
2022-11-28T18:14:42.277Z,100.00
2022-11-28T18:17:13.079Z,100.00
2022-11-28T18:19:47.047Z,100.00
2022-11-28T18:22:17.674Z,100.00
2022-11-28T18:24:48.286Z,100.00
2022-11-28T18:27:18.811Z,100.00
2022-11-28T18:29:49.565Z,100.00
2022-11-28T18:32:20.461Z,100.00
2022-11-28T18:34:50.963Z,100.00
2022-11-28T18:37:21.645Z,100.00
2022-11-28T18:39:52.404Z,100.00
2022-11-28T18:42:23.091Z,100.00
2022-11-28T18:44:54.015Z,100.00
2022-11-28T18:47:28.378Z,100.00
2022-11-28T18:49:59.072Z,100.00
2022-11-28T18:52:29.907Z,100.00
2022-11-28T18:55:00.683Z,100.00
2022-11-28T18:57:34.540Z,100.00
2022-11-28T19:00:08.899Z,100.00
2022-11-28T19:02:39.544Z,100.00
2022-11-28T19:05:11.677Z,100.00
2022-11-28T19:07:42.686Z,100.00
2022-11-28T19:10:14.381Z,100.00
2022-11-28T19:12:45.150Z,100.00
2022-11-28T19:15:16.004Z,100.00
2022-11-28T19:17:46.675Z,100.00
2022-11-28T19:20:17.432Z,100.00
2022-11-28T19:22:48.560Z,100.00
2022-11-28T19:25:19.913Z,100.00
2022-11-28T19:27:51.147Z,100.00
2022-11-28T19:30:22.348Z,100.00
2022-11-28T19:32:52.946Z,100.00
2022-11-28T19:35:23.599Z,100.00
2022-11-28T19:37:54.445Z,100.00
2022-11-28T19:40:25.727Z,100.00
2022-11-28T19:42:56.347Z,100.00
2022-11-28T19:45:27.099Z,100.00
2022-11-28T19:47:57.844Z,100.00
2022-11-28T19:50:28.883Z,100.00
2022-11-28T19:52:58.659Z,100.00
2022-11-28T19:55:29.845Z,100.00
2022-11-28T19:58:00.942Z,100.00
2022-11-28T20:00:31.616Z,100.00
2022-11-28T20:03:02.136Z,100.00
2022-11-28T20:05:36.077Z,100.00
2022-11-28T20:08:07.047Z,100.00
2022-11-28T20:10:38.867Z,100.00
2022-11-28T20:13:09.917Z,100.00
2022-11-28T20:15:40.735Z,100.00
2022-11-28T20:18:11.505Z,100.00
2022-11-28T20:20:44.499Z,100.00
2022-11-28T20:23:17.521Z,100.00
2022-11-28T20:25:48.318Z,100.00
2022-11-28T20:28:18.879Z,100.00
2022-11-28T20:30:49.796Z,100.00
2022-11-28T20:33:21.052Z,100.00
2022-11-28T20:35:56.984Z,100.00
2022-11-28T20:38:31.574Z,100.00
2022-11-28T20:41:04.148Z,100.00
2022-11-28T20:43:36.761Z,100.00
2022-11-28T20:46:08.977Z,100.00
2022-11-28T20:48:39.759Z,100.00
2022-11-28T20:51:12.921Z,100.00
2022-11-28T20:53:44.025Z,100.00
2022-11-28T20:56:17.285Z,100.00
2022-11-28T20:58:48.235Z,100.00
2022-11-28T21:01:21.188Z,100.00
2022-11-28T21:03:53.796Z,100.00
2022-11-28T21:06:41.463Z,100.00
2022-11-28T21:09:12.775Z,100.00
2022-11-28T21:12:02.604Z,100.00
2022-11-28T21:14:33.146Z,100.00
2022-11-28T21:17:07.727Z,100.00
2022-11-28T21:19:38.405Z,100.00
2022-11-28T21:22:08.958Z,100.00
2022-11-28T21:24:39.535Z,100.00
2022-11-28T21:27:10.095Z,100.00
2022-11-28T21:29:40.643Z,100.00
2022-11-28T21:32:13.543Z,100.00
2022-11-28T21:34:44.187Z,100.00
2022-11-28T21:37:14.632Z,100.00
2022-11-28T21:39:45.472Z,100.00
2022-11-28T21:42:20.569Z,100.00
2022-11-28T21:44:51.634Z,100.00
2022-11-28T21:47:22.962Z,100.00
2022-11-28T21:49:54.080Z,100.00
2022-11-28T21:52:24.861Z,100.00
2022-11-28T21:54:55.385Z,100.00
2022-11-28T21:57:26.214Z,100.00
2022-11-28T21:59:57.497Z,100.00
2022-11-28T22:02:30.936Z,100.00
2022-11-28T22:05:02.097Z,100.00
2022-11-28T22:07:32.696Z,100.00
2022-11-28T22:12:53.727Z,100.00
2022-11-28T22:15:24.387Z,100.00
2022-11-28T22:17:55.033Z,100.00
2022-11-28T22:20:24.814Z,100.00
2022-11-28T22:22:55.304Z,100.00
2022-11-28T22:25:26.005Z,100.00
2022-11-28T22:27:56.591Z,100.00
2022-11-28T22:30:27.647Z,100.00
2022-11-28T22:32:58.359Z,100.00
2022-11-28T22:35:29.538Z,100.00
2022-11-28T22:38:00.183Z,100.00
2022-11-28T22:40:31.013Z,100.00
2022-11-28T22:43:01.796Z,100.00
2022-11-28T22:45:32.589Z,100.00
2022-11-28T22:48:03.077Z,100.00
2022-11-28T22:50:37.349Z,100.00
2022-11-28T22:53:10.651Z,100.00
2022-11-28T22:55:41.362Z,100.00
2022-11-28T22:58:12.050Z,100.00
2022-11-28T23:00:43.037Z,100.00
2022-11-28T23:03:13.638Z,100.00
2022-11-28T23:05:49.085Z,100.00
2022-11-28T23:08:22.081Z,100.00
2022-11-28T23:10:53.983Z,100.00
2022-11-28T23:13:24.619Z,100.00
2022-11-28T23:15:55.285Z,100.00
2022-11-28T23:18:25.999Z,100.00
2022-11-28T23:20:59.351Z,100.00
2022-11-28T23:23:31.134Z,100.00
2022-11-28T23:26:05.344Z,100.00
2022-11-28T23:28:36.819Z,100.00
2022-11-28T23:31:10.285Z,100.00
2022-11-28T23:33:41.745Z,100.00
2022-11-28T23:36:18.249Z,100.00
2022-11-28T23:38:50.834Z,100.00
2022-11-28T23:41:21.550Z,100.00
2022-11-28T23:43:52.228Z,100.00
2022-11-28T23:46:25.581Z,100.00
2022-11-28T23:48:56.197Z,100.00
2022-11-28T23:51:28.509Z,100.00
2022-11-28T23:53:58.964Z,100.00
2022-11-28T23:56:31.151Z,100.00
2022-11-28T23:59:04.488Z,100.00
